Time;durP1;ratioP1;P1;durP2;ratioP2;P2;SDS_P1;SDS_P2;PMS_P1;PMS_P2;Temp;Humidity;BMP_temperature;BMP_pressure;BME280_temperature;BME280_humidity;BME280_pressure;Samples;Min_cycle;Max_cycle;Signal;HPM_P1;HPM_P2
2023/06/18 00:02:03;;;;;;;9.77;8.87;;;;;;;18.66;51.21;101198.34;4982278;28;105530;-81
2023/06/18 00:04:28;;;;;;;8.40;7.70;;;;;;;18.63;51.31;101199.44;4985435;28;97295;-80
2023/06/18 00:06:54;;;;;;;9.17;8.17;;;;;;;18.61;51.42;101190.84;4984645;28;97083;-81
2023/06/18 00:09:20;;;;;;;10.20;8.90;;;;;;;18.60;51.58;101206.06;4983733;28;98762;-81
2023/06/18 00:11:45;;;;;;;10.00;9.10;;;;;;;18.55;51.40;101201.34;4983026;28;97389;-82
2023/06/18 00:14:11;;;;;;;9.20;8.40;;;;;;;18.46;51.45;101204.53;4983372;28;97296;-79
2023/06/18 00:16:36;;;;;;;10.03;9.07;;;;;;;18.39;51.71;101194.03;4988236;28;97048;-81
2023/06/18 00:19:02;;;;;;;10.07;9.07;;;;;;;18.37;51.89;101196.59;4985939;28;99344;-79
2023/06/18 00:21:30;;;;;;;10.50;9.50;;;;;;;18.38;51.96;101207.19;4987104;28;97293;-77
2023/06/18 00:23:56;;;;;;;10.37;9.37;;;;;;;18.35;51.77;101201.91;4968593;28;97629;-81
2023/06/18 00:26:22;;;;;;;10.57;9.47;;;;;;;18.31;51.80;101187.56;4985970;28;96773;-82
2023/06/18 00:28:48;;;;;;;10.33;9.33;;;;;;;18.34;51.78;101197.66;4983075;28;97714;-82
2023/06/18 00:31:13;;;;;;;10.27;9.27;;;;;;;18.28;51.61;101186.59;4982327;28;99039;-81
2023/06/18 00:33:38;;;;;;;9.53;8.70;;;;;;;18.28;51.80;101180.28;4969247;28;97361;-80
2023/06/18 00:36:06;;;;;;;10.30;9.30;;;;;;;18.23;51.88;101178.34;4987007;28;97387;-80
2023/06/18 00:38:33;;;;;;;9.90;8.90;;;;;;;18.20;51.99;101168.25;4983128;28;98278;-81
2023/06/18 00:40:58;;;;;;;10.77;9.67;;;;;;;18.14;52.05;101179.50;4961659;28;99539;-81
2023/06/18 00:43:27;;;;;;;10.80;9.70;;;;;;;18.13;52.02;101188.41;4982161;28;97551;-78
2023/06/18 00:45:53;;;;;;;10.60;9.43;;;;;;;18.10;51.95;101193.00;4986192;28;97119;-81
2023/06/18 00:48:19;;;;;;;11.07;10.07;;;;;;;18.07;51.84;101173.78;4991864;28;97592;-81
2023/06/18 00:50:46;;;;;;;9.70;8.80;;;;;;;17.97;52.10;101173.47;4962824;28;99457;-81
2023/06/18 00:53:13;;;;;;;12.33;9.70;;;;;;;17.96;52.17;101194.22;4988720;28;97502;-81
2023/06/18 00:55:39;;;;;;;10.63;9.47;;;;;;;17.86;52.18;101174.41;4994610;28;97414;-79
2023/06/18 00:58:05;;;;;;;9.40;8.50;;;;;;;17.84;52.15;101179.00;4991038;28;98681;-82
2023/06/18 01:00:34;;;;;;;11.23;10.17;;;;;;;17.71;52.44;101168.53;4961127;28;100031;-80
2023/06/18 01:03:21;;;;;;;11.10;10.00;;;;;;;17.75;53.22;101169.00;4972512;28;97668;-80
2023/06/18 01:05:50;;;;;;;10.50;9.40;;;;;;;17.64;52.42;101165.63;4990742;28;97176;-81
2023/06/18 01:08:17;;;;;;;10.70;9.70;;;;;;;17.65;52.54;101181.78;4992994;28;99179;-81
2023/06/18 01:10:43;;;;;;;10.20;9.30;;;;;;;17.70;52.77;101169.06;4978150;28;99717;-79
2023/06/18 01:13:09;;;;;;;10.70;9.70;;;;;;;17.69;52.86;101196.16;4972273;28;97146;-79
2023/06/18 01:15:34;;;;;;;11.50;9.73;;;;;;;17.73;52.94;101170.81;4994049;28;97367;-81
2023/06/18 01:18:01;;;;;;;12.47;10.23;;;;;;;17.72;52.59;101172.84;4972285;28;99117;-81
2023/06/18 01:20:30;;;;;;;10.70;9.70;;;;;;;17.63;52.80;101167.66;4973074;28;100145;-82
2023/06/18 01:23:02;;;;;;;10.30;9.30;;;;;;;17.61;53.33;101170.22;4993653;28;97399;-81
2023/06/18 01:25:32;;;;;;;10.37;9.40;;;;;;;17.59;53.03;101167.22;4989728;28;96879;-81
2023/06/18 01:28:00;;;;;;;10.40;9.40;;;;;;;17.61;53.09;101170.22;4988061;28;98845;-81
2023/06/18 01:30:26;;;;;;;9.80;8.87;;;;;;;17.62;53.12;101168.19;4963574;28;99802;-80
2023/06/18 01:32:55;;;;;;;10.83;9.73;;;;;;;17.62;53.23;101176.53;4991465;28;96970;-78
2023/06/18 01:35:21;;;;;;;10.07;9.17;;;;;;;17.60;52.85;101168.72;4994278;28;97320;-78
2023/06/18 01:37:50;;;;;;;9.63;8.73;;;;;;;17.49;52.82;101174.44;4977256;28;100714;-81
2023/06/18 01:40:25;;;;;;;12.27;9.00;;;;;;;17.41;53.19;101176.28;4973657;28;99586;-78
2023/06/18 01:43:04;;;;;;;10.67;9.63;;;;;;;17.31;53.62;101185.53;4996024;28;97147;-82
2023/06/18 01:45:36;;;;;;;11.80;10.10;;;;;;;17.30;53.25;101189.63;4977761;28;97580;-82
2023/06/18 01:48:05;;;;;;;13.60;9.37;;;;;;;17.20;53.31;101172.53;4994940;28;97550;-80
2023/06/18 01:50:34;;;;;;;9.90;9.00;;;;;;;17.10;53.48;101186.06;4996319;28;98419;-81
2023/06/18 01:53:00;;;;;;;10.37;9.37;;;;;;;17.01;53.17;101169.00;4990397;28;97039;-83
2023/06/18 01:55:28;;;;;;;10.23;9.33;;;;;;;16.88;53.63;101161.34;4994250;28;97143;-82
2023/06/18 01:57:55;;;;;;;10.60;9.50;;;;;;;16.92;53.49;101167.34;4993836;28;97893;-79
2023/06/18 02:00:21;;;;;;;11.23;10.13;;;;;;;16.88;53.50;101168.91;4991257;28;98434;-81
2023/06/18 02:02:47;;;;;;;9.80;8.87;;;;;;;16.80;53.65;101176.31;4976436;28;97311;-81
2023/06/18 02:05:12;;;;;;;10.57;9.67;;;;;;;16.78;53.89;101185.19;4993762;28;97098;-77
2023/06/18 02:07:37;;;;;;;11.53;10.33;;;;;;;16.83;53.86;101178.06;4990741;28;97479;-82
2023/06/18 02:10:03;;;;;;;9.43;8.53;;;;;;;16.86;53.78;101179.81;4992864;28;100749;-81
2023/06/18 02:12:28;;;;;;;11.23;10.10;;;;;;;16.83;53.65;101191.97;4989213;28;96720;-81
2023/06/18 02:14:54;;;;;;;10.50;9.50;;;;;;;16.78;53.74;101201.88;4992662;28;97435;-80
2023/06/18 02:17:19;;;;;;;12.67;10.87;;;;;;;16.77;53.95;101196.84;4993129;28;99028;-81
2023/06/18 02:19:45;;;;;;;10.77;9.67;;;;;;;16.74;53.93;101187.50;4995583;28;98300;-82
2023/06/18 02:22:10;;;;;;;11.33;10.20;;;;;;;16.70;54.08;101189.06;4989911;28;97010;-81
2023/06/18 02:24:35;;;;;;;10.73;9.80;;;;;;;16.64;54.16;101188.38;4994306;28;97384;-81
2023/06/18 02:27:01;;;;;;;10.90;9.80;;;;;;;16.63;54.03;101190.41;4977843;28;100463;-81
2023/06/18 02:29:26;;;;;;;10.67;8.97;;;;;;;16.62;53.99;101190.94;4980348;28;99442;-82
2023/06/18 02:31:51;;;;;;;10.17;9.10;;;;;;;16.51;54.04;101183.47;4993792;28;96839;-78
2023/06/18 02:34:18;;;;;;;10.30;9.40;;;;;;;16.60;53.77;101202.56;4994019;28;97446;-82
2023/06/18 02:36:44;;;;;;;10.70;9.70;;;;;;;16.55;53.83;101241.50;4965622;28;99424;-81
2023/06/18 02:39:09;;;;;;;10.20;9.20;;;;;;;16.47;54.01;101188.50;4974441;28;100482;-81
2023/06/18 02:41:35;;;;;;;10.60;9.60;;;;;;;16.46;54.24;101198.13;4992647;28;96931;-81
2023/06/18 02:44:01;;;;;;;11.03;9.93;;;;;;;16.44;54.28;101187.56;4992903;28;96665;-81
2023/06/18 02:46:26;;;;;;;10.03;9.13;;;;;;;16.45;54.36;101200.16;4992922;28;98773;-81
2023/06/18 02:48:51;;;;;;;10.13;9.13;;;;;;;16.47;54.52;101208.72;4996322;28;97717;-81
2023/06/18 02:51:17;;;;;;;10.13;9.23;;;;;;;16.51;54.55;101199.38;4992871;28;96661;-82
2023/06/18 02:53:42;;;;;;;11.03;9.80;;;;;;;16.49;54.33;101197.06;4993367;28;96984;-81
2023/06/18 02:56:07;;;;;;;9.87;8.90;;;;;;;16.48;54.35;101210.25;4990683;28;110342;-80
2023/06/18 02:58:35;;;;;;;10.23;9.23;;;;;;;16.46;54.37;101198.13;4992288;28;97279;-81
2023/06/18 03:01:02;;;;;;;10.30;9.30;;;;;;;16.48;54.56;101199.13;4990778;28;97179;-82
2023/06/18 03:03:27;;;;;;;10.40;9.30;;;;;;;16.49;54.53;101197.84;4996948;28;96856;-81
2023/06/18 03:05:53;;;;;;;10.43;8.90;;;;;;;16.51;54.41;101197.38;4979193;28;99343;-82
2023/06/18 03:08:19;;;;;;;10.27;9.20;;;;;;;16.51;54.47;101213.28;4990563;28;97406;-81
2023/06/18 03:10:45;;;;;;;9.90;9.00;;;;;;;16.47;54.50;101208.72;4993302;28;96768;-82
2023/06/18 03:13:10;;;;;;;9.93;9.00;;;;;;;16.47;54.55;101207.97;4990444;28;99480;-82
2023/06/18 03:15:36;;;;;;;10.43;9.43;;;;;;;16.46;54.53;101210.00;4991479;28;97677;-82
2023/06/18 03:18:01;;;;;;;10.90;9.80;;;;;;;16.40;54.50;101200.94;4977579;28;99343;-82
2023/06/18 03:20:27;;;;;;;10.40;9.40;;;;;;;16.37;54.45;101207.56;4994669;28;96912;-79
2023/06/18 03:22:53;;;;;;;11.00;9.90;;;;;;;16.36;54.49;101216.38;4980354;28;97059;-82
2023/06/18 03:25:19;;;;;;;11.03;10.00;;;;;;;16.34;54.65;101207.81;4988755;28;97566;-83
2023/06/18 03:27:48;;;;;;;10.83;9.63;;;;;;;16.36;54.68;101203.25;4989368;28;97631;-82
2023/06/18 03:30:14;;;;;;;9.77;8.93;;;;;;;16.36;54.80;101211.59;4991410;28;97469;-82
2023/06/18 03:32:40;;;;;;;10.40;9.37;;;;;;;16.38;54.53;101209.06;4964279;28;97449;-82
2023/06/18 03:35:06;;;;;;;10.57;9.50;;;;;;;16.35;54.53;101193.44;4975142;28;100536;-81
2023/06/18 03:37:31;;;;;;;10.50;9.50;;;;;;;16.39;54.64;101215.38;4990319;28;98275;-81
2023/06/18 03:39:57;;;;;;;9.83;8.93;;;;;;;16.33;54.73;101207.09;4989049;28;97131;-79
2023/06/18 03:42:23;;;;;;;10.17;9.17;;;;;;;16.29;55.00;101209.38;4989851;28;96906;-81
2023/06/18 03:44:49;;;;;;;9.90;9.00;;;;;;;16.29;54.94;101201.06;4985930;28;97865;-81
2023/06/18 03:47:15;;;;;;;11.70;10.50;;;;;;;16.33;54.74;101203.56;4993961;28;97332;-82
2023/06/18 03:49:41;;;;;;;10.80;9.37;;;;;;;16.36;54.62;101194.94;4991872;28;96707;-81
2023/06/18 03:52:06;;;;;;;10.60;9.50;;;;;;;16.33;54.62;101203.56;4994011;28;96761;-81
2023/06/18 03:54:32;;;;;;;9.70;8.70;;;;;;;16.30;54.74;101202.56;4975615;28;100111;-81
2023/06/18 03:56:58;;;;;;;10.10;9.03;;;;;;;16.27;54.96;101203.59;4988191;28;97600;-80
2023/06/18 03:59:23;;;;;;;10.67;9.67;;;;;;;16.27;54.89;101200.09;4978130;28;96815;-82
2023/06/18 04:01:49;;;;;;;10.70;9.63;;;;;;;16.30;54.83;101197.03;4976987;28;96878;-82
2023/06/18 04:04:15;;;;;;;10.57;9.57;;;;;;;16.28;54.89;101190.47;4994855;28;97991;-82
2023/06/18 04:06:40;;;;;;;12.80;9.77;;;;;;;16.28;54.90;101196.03;4993017;28;97867;-81
2023/06/18 04:09:06;;;;;;;11.03;10.00;;;;;;;16.33;55.05;101203.56;4989758;28;97310;-81
2023/06/18 04:11:31;;;;;;;11.40;9.53;;;;;;;16.34;55.18;101199.50;4976798;28;96974;-82
2023/06/18 04:13:56;;;;;;;9.03;8.20;;;;;;;16.39;54.78;101204.25;4995851;28;101658;-80
2023/06/18 04:16:22;;;;;;;10.03;9.13;;;;;;;16.33;54.80;101209.88;4995674;28;101943;-82
2023/06/18 04:18:47;;;;;;;11.03;9.93;;;;;;;16.34;55.02;101197.47;4989208;28;97062;-81
2023/06/18 04:21:12;;;;;;;10.90;9.87;;;;;;;16.39;55.13;101205.00;4981648;28;96860;-82
2023/06/18 04:23:40;;;;;;;10.43;9.43;;;;;;;16.40;55.24;101195.41;4992532;28;97760;-81
2023/06/18 04:26:05;;;;;;;10.77;9.67;;;;;;;16.47;55.29;101208.72;4978303;28;99534;-82
2023/06/18 04:28:31;;;;;;;10.80;9.70;;;;;;;16.49;55.35;101219.31;5000477;28;96621;-81
2023/06/18 04:30:56;;;;;;;11.40;10.30;;;;;;;16.54;55.23;101209.44;5001626;28;97408;-82
2023/06/18 04:33:21;;;;;;;10.97;9.90;;;;;;;16.53;55.49;101210.72;4997216;28;96986;-82
2023/06/18 04:35:47;;;;;;;10.37;9.30;;;;;;;16.55;55.22;101202.63;4997686;28;97126;-82
2023/06/18 04:38:12;;;;;;;10.20;9.30;;;;;;;16.58;55.63;101199.53;4984496;28;96922;-82
2023/06/18 04:40:37;;;;;;;11.03;10.03;;;;;;;16.60;55.38;101204.59;4984029;28;99123;-80
2023/06/18 04:43:03;;;;;;;11.27;9.30;;;;;;;16.65;55.63;101196.19;4999243;28;99398;-82
2023/06/18 04:45:28;;;;;;;10.17;8.97;;;;;;;16.70;55.49;101214.09;4996505;28;97670;-80
2023/06/18 04:47:54;;;;;;;9.63;8.83;;;;;;;16.81;55.19;101205.63;4980869;28;97388;-82
2023/06/18 04:50:21;;;;;;;11.23;10.13;;;;;;;16.84;55.25;101210.16;4980127;28;96931;-82
2023/06/18 04:52:46;;;;;;;10.60;9.60;;;;;;;16.82;55.14;101212.69;4974102;28;99626;-81
2023/06/18 04:55:11;;;;;;;10.30;9.30;;;;;;;16.78;55.35;101190.00;4994604;28;96752;-82
2023/06/18 04:57:37;;;;;;;10.57;9.47;;;;;;;16.86;55.20;101224.28;4992736;28;96906;-81
2023/06/18 05:00:04;;;;;;;10.40;9.40;;;;;;;16.84;55.27;101204.59;4974992;28;97009;-80
2023/06/18 05:02:30;;;;;;;9.23;8.37;;;;;;;16.88;55.38;101202.28;4990455;28;96998;-83
2023/06/18 05:04:56;;;;;;;10.27;9.27;;;;;;;16.89;55.42;101209.31;4987982;28;96715;-82
2023/06/18 05:07:21;;;;;;;10.53;9.43;;;;;;;16.91;55.52;101204.75;4997539;28;97424;-82
2023/06/18 05:09:47;;;;;;;11.00;9.53;;;;;;;16.96;55.40;101203.94;4996150;28;96869;-81
2023/06/18 05:12:12;;;;;;;10.60;9.60;;;;;;;17.05;55.57;101209.13;5006880;28;97597;-80
2023/06/18 05:14:37;;;;;;;11.47;9.47;;;;;;;17.04;55.27;101204.84;5004467;28;97248;-82
2023/06/18 05:17:03;;;;;;;10.10;9.20;;;;;;;17.13;55.54;101214.84;4980865;28;96771;-81
2023/06/18 05:19:28;;;;;;;10.00;9.00;;;;;;;17.14;55.56;101211.56;5008227;28;96870;-82
2023/06/18 05:21:54;;;;;;;10.53;9.63;;;;;;;17.21;55.82;101210.94;4989521;28;99152;-82
2023/06/18 05:24:19;;;;;;;9.20;8.47;;;;;;;17.31;55.67;101193.91;4993361;28;99622;-82
2023/06/18 05:26:44;;;;;;;11.90;9.33;;;;;;;17.42;55.65;101213.22;4980647;28;97288;-82
2023/06/18 05:29:10;;;;;;;9.73;8.90;;;;;;;17.49;55.73;101210.59;4997189;28;96785;-81
2023/06/18 05:31:35;;;;;;;10.67;9.57;;;;;;;17.59;55.70;101216.53;4997592;28;96878;-80
2023/06/18 05:34:01;;;;;;;9.37;8.57;;;;;;;17.66;55.78;101210.38;4980721;28;103384;-81
2023/06/18 05:36:26;;;;;;;10.23;9.27;;;;;;;17.77;55.73;101216.53;4977748;28;96970;-82
2023/06/18 05:38:53;;;;;;;10.20;9.30;;;;;;;17.87;55.84;101226.00;4994969;28;96797;-82
2023/06/18 05:41:19;;;;;;;10.20;9.20;;;;;;;18.01;55.84;101217.69;4977031;28;99691;-81
2023/06/18 05:43:44;;;;;;;9.97;9.07;;;;;;;18.14;55.80;101226.84;4966349;28;100343;-82
2023/06/18 05:46:10;;;;;;;10.10;9.10;;;;;;;18.27;55.92;101232.44;4991295;28;97090;-82
2023/06/18 05:48:35;;;;;;;11.50;8.90;;;;;;;18.38;55.87;101223.16;4991765;28;97490;-81
2023/06/18 05:51:01;;;;;;;10.70;9.70;;;;;;;18.49;55.84;101228.56;4973574;28;99050;-80
2023/06/18 05:53:26;;;;;;;10.07;8.90;;;;;;;18.58;55.88;101230.94;4978681;28;99152;-80
2023/06/18 05:55:52;;;;;;;9.60;8.70;;;;;;;18.70;55.83;101240.59;4986457;28;96686;-81
2023/06/18 05:58:17;;;;;;;10.67;9.70;;;;;;;18.86;55.90;101244.34;4984208;28;96868;-81
2023/06/18 06:00:42;;;;;;;10.97;9.93;;;;;;;18.99;55.77;101233.97;4996109;28;97960;-81
2023/06/18 06:03:09;;;;;;;10.87;9.87;;;;;;;19.11;55.81;101238.00;4995446;28;103887;-81
2023/06/18 06:05:35;;;;;;;10.13;9.17;;;;;;;19.25;55.72;101242.31;4990511;28;96996;-81
2023/06/18 06:08:01;;;;;;;12.30;11.10;;;;;;;19.36;55.87;101247.69;4981891;28;98312;-82
2023/06/18 06:10:26;;;;;;;10.93;9.90;;;;;;;19.49;55.80;101244.09;4987562;28;97927;-80
2023/06/18 06:12:53;;;;;;;11.40;10.37;;;;;;;19.60;55.77;101248.69;4990112;28;97869;-81
2023/06/18 06:15:18;;;;;;;11.77;10.57;;;;;;;19.72;55.77;101239.56;4979519;28;96973;-80
2023/06/18 06:17:44;;;;;;;11.50;10.47;;;;;;;19.86;55.76;101248.63;4992839;28;96879;-81
2023/06/18 06:20:10;;;;;;;11.90;10.80;;;;;;;19.97;55.69;101251.91;4975125;28;100372;-82
2023/06/18 06:22:35;;;;;;;10.80;9.90;;;;;;;20.11;55.67;101241.44;4980289;28;101460;-82
2023/06/18 06:25:00;;;;;;;9.80;8.90;;;;;;;20.21;55.36;101236.88;4993155;28;97324;-82
2023/06/18 06:27:26;;;;;;;10.60;9.60;;;;;;;20.38;55.19;101242.78;4995143;28;97498;-82
2023/06/18 06:29:51;;;;;;;9.53;8.60;;;;;;;20.52;55.18;101268.63;4997041;28;96747;-82
2023/06/18 06:32:17;;;;;;;9.17;8.37;;;;;;;20.65;55.03;101244.13;4978704;28;112499;-81
2023/06/18 06:34:42;;;;;;;9.70;8.80;;;;;;;20.78;54.91;101237.69;4995977;28;97230;-82
2023/06/18 06:37:08;;;;;;;9.60;8.70;;;;;;;20.92;54.76;101239.09;4980017;28;97225;-82
2023/06/18 06:39:34;;;;;;;9.10;8.20;;;;;;;21.07;54.45;101235.66;4984579;28;100357;-83
2023/06/18 06:41:59;;;;;;;9.27;8.27;;;;;;;21.20;53.93;101239.09;4992931;28;97292;-82
2023/06/18 06:44:25;;;;;;;8.13;7.50;;;;;;;21.30;53.96;101259.66;4989212;28;97595;-82
2023/06/18 06:46:50;;;;;;;8.50;7.73;;;;;;;21.51;54.01;101237.16;4988215;28;97230;-83
2023/06/18 06:49:16;;;;;;;7.53;6.90;;;;;;;21.63;53.68;101243.91;4976674;28;99536;-81
2023/06/18 06:51:41;;;;;;;7.97;7.27;;;;;;;21.76;53.53;101245.81;4971436;28;100358;-82
2023/06/18 06:54:09;;;;;;;8.83;8.03;;;;;;;21.92;53.45;101242.53;4977441;28;96685;-82
2023/06/18 06:56:34;;;;;;;8.50;7.80;;;;;;;22.09;53.13;101245.53;4994094;28;96928;-82
2023/06/18 06:59:00;;;;;;;8.03;7.33;;;;;;;22.20;53.01;101250.03;4976384;28;99827;-82
2023/06/18 07:01:26;;;;;;;6.97;6.37;;;;;;;22.34;52.74;101252.09;4995368;28;97654;-81
2023/06/18 07:03:52;;;;;;;6.67;6.17;;;;;;;22.47;52.18;101262.38;4995594;28;97414;-81
2023/06/18 07:06:17;;;;;;;6.90;6.30;;;;;;;22.63;51.75;101261.09;4981310;28;96857;-82
2023/06/18 07:08:43;;;;;;;5.93;5.53;;;;;;;22.78;51.72;101251.91;5002924;28;96752;-81
2023/06/18 07:11:08;;;;;;;6.77;6.20;;;;;;;22.89;51.34;101248.72;4992619;28;96772;-82
2023/06/18 07:13:34;;;;;;;7.10;6.53;;;;;;;23.02;51.18;101249.22;4989032;28;97029;-82
2023/06/18 07:16:00;;;;;;;5.80;5.40;;;;;;;23.13;50.65;101253.69;4976510;28;97251;-82
2023/06/18 07:18:25;;;;;;;5.83;5.40;;;;;;;23.28;50.53;101266.94;4977649;28;99602;-82
2023/06/18 07:20:50;;;;;;;5.70;5.20;;;;;;;23.39;50.28;101247.66;4994023;28;105128;-83
2023/06/18 07:23:16;;;;;;;5.37;4.93;;;;;;;23.52;49.99;101253.03;4991936;28;96820;-81
2023/06/18 07:25:41;;;;;;;5.93;5.43;;;;;;;23.60;49.54;101253.72;4984129;28;97147;-81
2023/06/18 07:28:07;;;;;;;5.23;4.83;;;;;;;23.73;49.16;101247.09;4978559;28;100422;-82
2023/06/18 07:30:32;;;;;;;5.57;5.10;;;;;;;23.82;48.78;101244.44;4991056;28;97865;-82
2023/06/18 07:32:57;;;;;;;5.30;4.80;;;;;;;23.94;48.74;101246.81;4989448;28;101640;-82
2023/06/18 07:35:23;;;;;;;5.73;5.10;;;;;;;24.05;48.76;101254.81;4970719;28;101186;-82
2023/06/18 07:37:49;;;;;;;5.77;5.37;;;;;;;24.14;48.29;101256.97;4991391;28;97532;-83
2023/06/18 07:40:15;;;;;;;6.13;5.63;;;;;;;24.25;48.04;101239.66;4987441;28;99056;-83
2023/06/18 07:42:40;;;;;;;6.40;5.83;;;;;;;24.36;47.91;101239.19;4987622;28;97579;-81
2023/06/18 07:45:06;;;;;;;6.37;5.87;;;;;;;24.50;47.96;101237.56;4988428;28;97314;-82
2023/06/18 07:47:31;;;;;;;6.90;6.27;;;;;;;24.61;47.79;101256.81;4986478;28;97889;-81
2023/06/18 07:49:58;;;;;;;6.60;6.00;;;;;;;24.71;47.41;101245.63;4971157;28;98997;-83
2023/06/18 07:52:23;;;;;;;6.40;5.90;;;;;;;24.81;47.49;101238.06;4984383;28;97181;-82
2023/06/18 07:54:49;;;;;;;6.53;6.03;;;;;;;24.91;47.35;101236.81;4987881;28;97236;-83
2023/06/18 07:57:15;;;;;;;6.40;5.90;;;;;;;25.02;47.11;101241.97;4971694;28;99869;-79
2023/06/18 07:59:40;;;;;;;5.70;5.20;;;;;;;25.12;46.57;101239.94;4974628;28;99352;-81
2023/06/18 08:02:06;;;;;;;6.10;5.60;;;;;;;25.22;46.80;101229.53;4986505;28;96952;-80
2023/06/18 08:04:31;;;;;;;5.67;5.23;;;;;;;25.31;46.56;101239.38;4991955;28;97113;-80
2023/06/18 08:06:56;;;;;;;6.50;5.90;;;;;;;25.40;45.94;101241.50;4990568;28;96848;-81
2023/06/18 08:09:22;;;;;;;5.90;5.40;;;;;;;25.47;45.79;101237.84;4978324;28;98895;-83
2023/06/18 08:11:48;;;;;;;5.53;5.10;;;;;;;25.62;45.79;101234.13;4975078;28;97711;-84
2023/06/18 08:14:13;;;;;;;6.13;5.63;;;;;;;25.71;45.52;101227.75;4972637;28;97178;-82
2023/06/18 08:16:39;;;;;;;6.10;5.70;;;;;;;25.82;45.61;101230.03;4990474;28;97656;-80
2023/06/18 08:19:04;;;;;;;5.97;5.43;;;;;;;25.89;45.03;101226.38;4972349;28;104306;-82
2023/06/18 08:21:30;;;;;;;5.77;5.17;;;;;;;25.94;44.57;101219.72;4984047;28;96995;-82
2023/06/18 08:23:55;;;;;;;5.47;5.07;;;;;;;26.03;44.25;101230.31;4959229;28;98739;-83
2023/06/18 08:26:22;;;;;;;5.27;4.87;;;;;;;26.11;44.13;101227.38;4968658;28;100591;-82
2023/06/18 08:28:48;;;;;;;6.33;5.83;;;;;;;26.17;43.92;101222.22;4987160;28;98107;-81
2023/06/18 08:31:14;;;;;;;6.33;5.73;;;;;;;26.26;43.68;101233.53;4973072;28;96835;-82
2023/06/18 08:33:40;;;;;;;6.50;5.93;;;;;;;26.37;43.78;101216.03;4975166;28;97256;-82
2023/06/18 08:36:05;;;;;;;5.53;5.13;;;;;;;26.47;43.58;101222.44;4971057;28;100351;-79
2023/06/18 08:38:30;;;;;;;5.50;5.10;;;;;;;26.56;43.06;101226.63;4991518;28;97385;-79
2023/06/18 08:41:00;;;;;;;5.17;4.77;;;;;;;26.63;43.07;101214.44;4995518;28;97324;-81
2023/06/18 08:43:26;;;;;;;5.43;5.00;;;;;;;26.71;42.79;101209.41;4993761;28;98410;-81
2023/06/18 08:45:53;;;;;;;5.70;5.20;;;;;;;26.82;42.35;101225.81;4996523;28;96518;-80
2023/06/18 08:48:24;;;;;;;4.80;4.40;;;;;;;26.94;41.91;101215.41;4977030;28;98943;-80
2023/06/18 08:50:58;;;;;;;4.40;4.10;;;;;;;27.05;41.47;101217.63;4981422;28;97269;-81
2023/06/18 08:53:30;;;;;;;4.40;4.00;;;;;;;27.19;40.73;101213.03;4968904;28;97259;-81
2023/06/18 08:55:55;;;;;;;4.10;3.80;;;;;;;27.28;39.91;101214.34;4992732;28;97902;-83
2023/06/18 08:58:26;;;;;;;4.20;3.90;;;;;;;27.36;39.48;101214.94;4972795;28;99887;-80
2023/06/18 09:00:53;;;;;;;4.50;4.20;;;;;;;27.42;40.01;101210.47;4994683;28;96950;-82
2023/06/18 09:03:20;;;;;;;4.63;4.33;;;;;;;27.52;39.91;101209.72;4994465;28;96750;-82
2023/06/18 09:05:45;;;;;;;5.43;5.00;;;;;;;27.60;39.75;101215.94;4996215;28;98343;-79
2023/06/18 09:08:12;;;;;;;4.67;4.30;;;;;;;27.67;39.85;101204.47;4998762;28;98966;-79
2023/06/18 09:10:38;;;;;;;4.17;3.87;;;;;;;27.76;39.73;101212.16;4995493;28;97396;-83
2023/06/18 09:13:03;;;;;;;4.47;4.17;;;;;;;27.92;39.53;101199.16;4998762;28;97203;-81
2023/06/18 09:15:28;;;;;;;4.57;4.27;;;;;;;28.06;39.06;101202.25;4980058;28;101056;-79
2023/06/18 09:17:54;;;;;;;4.67;4.27;;;;;;;28.13;39.28;101210.53;4994844;28;102623;-83
2023/06/18 09:20:20;;;;;;;4.30;3.90;;;;;;;28.18;39.06;101197.41;4993022;28;97248;-83
2023/06/18 09:22:47;;;;;;;4.47;4.07;;;;;;;28.28;38.87;101198.09;4994406;28;98059;-82
2023/06/18 09:25:23;;;;;;;4.70;4.30;;;;;;;28.48;38.19;101201.56;4980712;28;99357;-83
2023/06/18 09:27:49;;;;;;;4.50;4.10;;;;;;;28.66;38.72;101199.94;4997154;28;97006;-79
2023/06/18 09:30:23;;;;;;;4.53;4.20;;;;;;;28.82;37.78;101203.88;4975763;28;97205;-83
2023/06/18 09:32:49;;;;;;;4.00;3.70;;;;;;;28.99;37.76;101203.56;4995217;28;96855;-80
2023/06/18 09:35:17;;;;;;;4.50;4.10;;;;;;;29.11;37.70;101204.38;4980666;28;99597;-83
2023/06/18 09:37:43;;;;;;;4.37;4.03;;;;;;;29.21;37.13;101190.13;4979153;28;99713;-80
2023/06/18 09:40:16;;;;;;;4.30;4.00;;;;;;;29.32;36.09;101193.00;4980650;28;96618;-82
2023/06/18 09:42:43;;;;;;;4.43;3.40;;;;;;;29.46;36.88;101196.72;4994780;28;97260;-80
2023/06/18 09:45:09;;;;;;;4.17;3.90;;;;;;;29.64;36.64;101188.63;4982854;28;99196;-79
2023/06/18 09:47:37;;;;;;;3.30;3.10;;;;;;;29.60;35.49;101194.78;4989045;28;98426;-84
2023/06/18 09:50:05;;;;;;;3.83;3.53;;;;;;;29.63;35.32;101182.19;4990057;28;97966;-80
2023/06/18 09:52:30;;;;;;;3.60;3.30;;;;;;;29.71;35.03;101196.13;4992952;28;96987;-82
2023/06/18 09:54:55;;;;;;;3.50;3.20;;;;;;;29.81;35.11;101196.81;4990642;28;99451;-81
2023/06/18 09:57:21;;;;;;;3.03;2.83;;;;;;;30.00;35.35;101184.44;4996986;28;96802;-82
2023/06/18 09:59:46;;;;;;;4.40;3.70;;;;;;;30.18;34.80;101188.41;4989921;28;97025;-84
2023/06/18 10:02:23;;;;;;;3.27;2.97;;;;;;;30.30;33.09;101180.59;4983223;28;97302;-80
2023/06/18 10:04:48;;;;;;;3.77;3.47;;;;;;;30.37;33.97;101182.47;5000565;28;97696;-84
2023/06/18 10:07:18;;;;;;;3.27;3.07;;;;;;;30.40;33.95;101166.28;4994043;28;102127;-83
2023/06/18 10:09:48;;;;;;;3.50;3.20;;;;;;;30.51;34.13;101171.94;4974937;28;100592;-82
2023/06/18 10:12:15;;;;;;;4.03;3.73;;;;;;;30.65;33.91;101169.91;4994364;28;97499;-82
2023/06/18 10:14:42;;;;;;;3.53;3.33;;;;;;;30.72;33.69;101166.06;4994572;28;97040;-78
2023/06/18 10:17:16;;;;;;;3.10;2.90;;;;;;;30.81;33.18;101181.47;4987820;28;97557;-80
2023/06/18 10:19:49;;;;;;;3.43;3.23;;;;;;;30.79;32.31;101179.25;4991493;28;97015;-79
2023/06/18 10:22:17;;;;;;;3.00;2.80;;;;;;;30.82;33.50;101169.47;4990916;28;97073;-80
2023/06/18 10:24:48;;;;;;;3.07;2.87;;;;;;;30.83;32.80;101156.75;4988471;28;97381;-78
2023/06/18 10:27:15;;;;;;;4.03;3.73;;;;;;;30.80;32.79;101160.81;4993603;28;98152;-80
2023/06/18 10:29:41;;;;;;;3.50;3.30;;;;;;;30.87;33.04;101159.84;4992235;28;97028;-80
2023/06/18 10:32:06;;;;;;;3.60;3.30;;;;;;;30.98;32.78;101159.06;4998749;28;97148;-82
2023/06/18 10:34:32;;;;;;;3.00;2.80;;;;;;;31.10;32.49;101156.88;4995987;28;96483;-83
2023/06/18 10:36:59;;;;;;;3.30;3.10;;;;;;;31.18;31.66;101144.47;4977801;28;99221;-80
2023/06/18 10:39:25;;;;;;;3.33;3.03;;;;;;;31.19;31.66;101160.19;4980266;28;101135;-81
2023/06/18 10:41:54;;;;;;;3.20;3.00;;;;;;;31.21;31.07;101148.91;4992453;28;97902;-81
2023/06/18 10:44:58;;;;;;;3.70;3.20;;;;;;;31.34;30.49;101159.59;4991111;28;98832;-79
2023/06/18 10:47:32;;;;;;;3.27;3.07;;;;;;;31.47;30.46;101151.13;4986883;28;97931;-83
2023/06/18 10:50:01;;;;;;;2.90;2.70;;;;;;;31.56;31.23;101150.16;4971582;28;96788;-81
2023/06/18 10:52:31;;;;;;;3.27;3.07;;;;;;;31.58;31.09;101138.19;4976210;28;97383;-81
2023/06/18 10:55:20;;;;;;;3.53;3.33;;;;;;;31.67;30.51;101143.66;4988333;28;98313;-83
2023/06/18 10:57:55;;;;;;;4.07;3.60;;;;;;;31.75;30.78;101131.97;4978718;28;99477;-81
2023/06/18 11:00:29;;;;;;;3.57;3.37;;;;;;;31.80;30.45;101133.66;4973472;28;97381;-81
2023/06/18 11:03:02;;;;;;;3.40;3.10;;;;;;;31.76;29.83;101130.59;4992543;28;96540;-82
2023/06/18 11:05:36;;;;;;;3.20;3.00;;;;;;;31.70;30.10;101133.13;4988895;28;97551;-80
2023/06/18 11:08:06;;;;;;;3.40;3.20;;;;;;;31.75;29.89;101124.19;4990334;28;97354;-82
2023/06/18 11:10:33;;;;;;;3.70;3.30;;;;;;;31.65;30.15;101112.25;4993065;28;97137;-80
2023/06/18 11:13:01;;;;;;;3.30;3.10;;;;;;;31.65;30.09;101131.44;4989960;28;96691;-80
2023/06/18 11:15:26;;;;;;;3.90;3.60;;;;;;;31.57;30.53;101117.53;4972706;28;101003;-81
2023/06/18 11:17:53;;;;;;;4.00;3.60;;;;;;;31.62;30.52;101115.63;4995850;28;97151;-80